createdAt,value
2018-05-02T00:00:31.785Z,0.90
2018-05-02T00:02:58.823Z,0.90
2018-05-02T00:05:25.804Z,0.90
2018-05-02T00:07:52.061Z,0.90
2018-05-02T00:10:18.596Z,0.80
2018-05-02T00:12:44.879Z,0.80
2018-05-02T00:15:11.206Z,0.80
2018-05-02T00:17:37.407Z,0.70
2018-05-02T00:20:03.641Z,0.70
2018-05-02T00:22:30.622Z,0.70
2018-05-02T00:24:56.929Z,0.60
2018-05-02T00:27:23.135Z,0.60
2018-05-02T00:29:50.194Z,0.60
2018-05-02T00:32:16.490Z,0.60
2018-05-02T00:34:44.198Z,0.50
2018-05-02T00:37:10.489Z,0.50
2018-05-02T00:39:36.744Z,0.50
2018-05-02T00:42:03.962Z,0.40
2018-05-02T00:44:31.722Z,0.40
2018-05-02T00:46:58.855Z,0.40
2018-05-02T00:49:25.018Z,0.30
2018-05-02T00:51:52.033Z,0.40
2018-05-02T00:54:18.304Z,0.30
2018-05-02T00:56:44.581Z,0.30
2018-05-02T00:59:10.776Z,0.30
2018-05-02T01:01:37.029Z,0.30
2018-05-02T01:04:03.366Z,0.30
2018-05-02T01:06:29.566Z,0.30
2018-05-02T01:08:55.833Z,0.30
2018-05-02T01:11:22.071Z,0.20
2018-05-02T01:13:48.406Z,0.20
2018-05-02T01:16:14.745Z,0.20
2018-05-02T01:18:41.747Z,0.10
2018-05-02T01:21:07.993Z,0.10
2018-05-02T01:23:35.629Z,0.10
2018-05-02T01:26:01.905Z,0.10
2018-05-02T01:28:28.854Z,0.10
2018-05-02T01:30:55.261Z,0.10
2018-05-02T01:33:22.240Z,0.00
2018-05-02T01:35:48.729Z,0.00
2018-05-02T01:38:15.048Z,0.00
2018-05-02T01:40:41.358Z,0.00
2018-05-02T01:43:07.537Z,0.00
2018-05-02T01:45:34.546Z,-0.10
2018-05-02T01:48:00.893Z,-0.10
2018-05-02T01:50:27.948Z,-0.10
2018-05-02T01:52:54.146Z,-0.10
2018-05-02T01:55:20.450Z,0.00
2018-05-02T01:57:46.690Z,-0.10
2018-05-02T02:00:12.964Z,-0.10
2018-05-02T02:02:40.056Z,-0.10
2018-05-02T02:05:06.444Z,-0.10
2018-05-02T02:07:33.411Z,-0.10
2018-05-02T02:09:59.658Z,-0.10
2018-05-02T02:12:26.015Z,-0.10
2018-05-02T02:14:52.273Z,-0.20
2018-05-02T02:17:19.246Z,-0.20
2018-05-02T02:19:45.467Z,-0.20
2018-05-02T02:22:11.865Z,-0.20
2018-05-02T02:24:39.027Z,-0.30
2018-05-02T02:27:06.091Z,-0.30
2018-05-02T02:29:32.564Z,-0.30
2018-05-02T02:31:58.839Z,-0.20
2018-05-02T02:34:25.787Z,-0.30
2018-05-02T02:36:52.827Z,-0.30
2018-05-02T02:39:19.921Z,-0.30
2018-05-02T02:41:46.137Z,-0.30
2018-05-02T02:44:12.412Z,-0.30
2018-05-02T02:46:40.247Z,-0.50
2018-05-02T02:49:06.497Z,-0.50
2018-05-02T02:51:35.366Z,-0.50
2018-05-02T02:54:01.699Z,-0.50
2018-05-02T02:56:28.060Z,-0.40
2018-05-02T02:58:55.026Z,-0.50
2018-05-02T03:01:21.323Z,-0.50
2018-05-02T03:03:47.545Z,-0.50
2018-05-02T03:06:15.240Z,-0.40
2018-05-02T03:08:41.679Z,-0.40
2018-05-02T03:11:07.891Z,-0.50
2018-05-02T03:13:34.435Z,-0.40
2018-05-02T03:16:00.747Z,-0.50
2018-05-02T03:18:27.704Z,-0.50
2018-05-02T03:20:54.050Z,-0.50
2018-05-02T03:23:20.245Z,-0.50
2018-05-02T03:25:47.252Z,-0.50
2018-05-02T03:28:13.509Z,-0.60
2018-05-02T03:30:40.722Z,-0.60
2018-05-02T03:33:06.990Z,-0.60
2018-05-02T03:35:34.068Z,-0.60
2018-05-02T03:38:00.305Z,-0.60
2018-05-02T03:40:26.542Z,-0.60
2018-05-02T03:42:52.795Z,-0.60
2018-05-02T03:45:19.057Z,-0.60
2018-05-02T03:47:45.547Z,-0.60
2018-05-02T03:50:11.917Z,-0.70
2018-05-02T03:52:38.451Z,-0.70
2018-05-02T03:55:05.579Z,-0.70
2018-05-02T03:57:32.561Z,-0.60
2018-05-02T04:00:11.235Z,-0.60
2018-05-02T04:02:49.915Z,-0.70
2018-05-02T04:05:28.735Z,-0.70
2018-05-02T04:07:54.913Z,-0.60
2018-05-02T04:10:21.246Z,-0.60
2018-05-02T04:12:48.311Z,-0.60
2018-05-02T04:15:14.530Z,-0.60
2018-05-02T04:17:41.559Z,-0.50
2018-05-02T04:20:07.803Z,-0.50
2018-05-02T04:22:34.740Z,-0.50
2018-05-02T04:25:01.703Z,-0.50
2018-05-02T04:27:27.891Z,-0.50
2018-05-02T04:29:54.325Z,-0.50
2018-05-02T04:32:20.698Z,-0.40
2018-05-02T04:34:46.965Z,-0.40
2018-05-02T04:37:13.981Z,-0.30
2018-05-02T04:39:40.360Z,-0.30
2018-05-02T04:42:06.587Z,-0.20
2018-05-02T04:44:33.581Z,-0.10
2018-05-02T04:46:59.792Z,-0.10
2018-05-02T04:49:26.087Z,0.10
2018-05-02T04:51:53.903Z,0.40
2018-05-02T04:54:20.167Z,0.40
2018-05-02T04:56:46.717Z,0.60
2018-05-02T04:59:13.024Z,0.70
2018-05-02T05:01:39.301Z,0.90
2018-05-02T05:04:05.501Z,1.00
2018-05-02T05:06:31.808Z,1.10
2018-05-02T05:08:58.030Z,1.20
2018-05-02T05:11:24.288Z,1.30
2018-05-02T05:13:51.280Z,1.60
2018-05-02T05:16:17.540Z,1.60
2018-05-02T05:18:43.867Z,1.80
2018-05-02T05:21:11.008Z,1.90
2018-05-02T05:23:37.240Z,1.90
2018-05-02T05:26:03.514Z,2.00
2018-05-02T05:28:29.719Z,2.10
2018-05-02T05:30:56.879Z,2.30
2018-05-02T05:33:23.890Z,2.40
2018-05-02T05:35:50.128Z,2.30
2018-05-02T05:38:16.376Z,2.50
2018-05-02T05:40:43.397Z,2.80
2018-05-02T05:43:10.340Z,3.10
2018-05-02T05:45:38.066Z,3.20
2018-05-02T05:48:04.420Z,3.20
2018-05-02T05:50:30.644Z,3.30
2018-05-02T05:52:56.916Z,3.40
2018-05-02T05:55:23.488Z,3.50
2018-05-02T05:57:49.882Z,3.70
2018-05-02T06:00:16.836Z,4.20
2018-05-02T06:02:43.115Z,4.10
2018-05-02T06:05:09.441Z,4.40
2018-05-02T06:07:35.576Z,4.70
2018-05-02T06:10:03.318Z,5.10
2018-05-02T06:12:29.603Z,5.10
2018-05-02T06:14:55.845Z,5.30
2018-05-02T06:17:22.081Z,5.40
2018-05-02T06:19:48.396Z,5.60
2018-05-02T06:22:14.761Z,5.80
2018-05-02T06:24:42.025Z,5.80
2018-05-02T06:27:09.016Z,6.10
2018-05-02T06:29:35.441Z,6.10
2018-05-02T06:32:01.688Z,6.20
2018-05-02T06:34:27.858Z,6.30
2018-05-02T06:36:54.160Z,6.50
2018-05-02T06:39:20.406Z,6.60
2018-05-02T06:41:46.796Z,6.70
2018-05-02T06:44:13.049Z,6.90
2018-05-02T06:46:39.223Z,7.10
2018-05-02T06:49:05.616Z,7.30
2018-05-02T06:51:31.921Z,7.60
2018-05-02T06:53:58.125Z,7.90
2018-05-02T06:56:24.429Z,8.20
2018-05-02T06:58:51.359Z,8.60
2018-05-02T07:01:18.375Z,8.80
2018-05-02T07:03:44.691Z,8.70
2018-05-02T07:06:10.902Z,8.90
2018-05-02T07:08:37.188Z,9.00
2018-05-02T07:11:03.500Z,9.30
2018-05-02T07:13:29.938Z,9.50
2018-05-02T07:15:57.647Z,10.00
2018-05-02T07:18:23.916Z,10.00
2018-05-02T07:20:50.189Z,10.30
2018-05-02T07:23:17.165Z,10.60
2018-05-02T07:25:43.449Z,10.60
2018-05-02T07:28:09.629Z,10.80
2018-05-02T07:30:35.937Z,10.90
2018-05-02T07:33:02.589Z,11.00
2018-05-02T07:35:29.701Z,11.20
2018-05-02T07:37:56.668Z,11.30
2018-05-02T07:40:23.142Z,11.30
2018-05-02T07:42:51.141Z,11.50
2018-05-02T07:45:18.040Z,11.60
2018-05-02T07:47:44.261Z,11.60
2018-05-02T07:50:10.543Z,11.70
2018-05-02T07:52:38.069Z,11.70
2018-05-02T07:55:04.394Z,11.70
2018-05-02T07:57:30.601Z,11.80
2018-05-02T07:59:56.940Z,12.00
2018-05-02T08:02:23.206Z,12.20
2018-05-02T08:04:50.215Z,12.10
2018-05-02T08:07:16.445Z,12.10
2018-05-02T08:09:42.602Z,12.00
2018-05-02T08:12:09.611Z,12.00
2018-05-02T08:14:35.878Z,12.00
2018-05-02T08:17:02.881Z,12.00
2018-05-02T08:19:29.047Z,12.00
2018-05-02T08:21:56.151Z,11.80
2018-05-02T08:24:22.341Z,11.80
2018-05-02T08:26:48.556Z,11.90
2018-05-02T08:29:15.581Z,12.00
2018-05-02T08:31:41.959Z,12.00
2018-05-02T08:34:08.129Z,12.00
2018-05-02T08:36:34.919Z,11.90
2018-05-02T08:39:01.183Z,11.70
2018-05-02T08:41:27.338Z,11.70
2018-05-02T08:43:53.587Z,11.70
2018-05-02T08:46:19.810Z,11.90
2018-05-02T08:48:46.820Z,12.00
2018-05-02T08:51:13.099Z,12.00
2018-05-02T08:53:39.398Z,12.10
2018-05-02T08:56:06.459Z,12.00
2018-05-02T08:58:32.787Z,12.00
2018-05-02T09:00:59.851Z,12.00
2018-05-02T09:03:26.095Z,12.00
2018-05-02T09:05:52.318Z,12.10
2018-05-02T09:08:18.751Z,12.20
2018-05-02T09:10:45.098Z,12.20
2018-05-02T09:13:11.436Z,12.10
2018-05-02T09:15:37.697Z,12.20
2018-05-02T09:18:04.013Z,12.30
2018-05-02T09:20:30.366Z,12.40
2018-05-02T09:22:57.568Z,12.40
2018-05-02T09:25:23.991Z,12.30
2018-05-02T09:27:50.205Z,12.40
2018-05-02T09:30:16.691Z,12.40
2018-05-02T09:32:43.751Z,12.60
2018-05-02T09:35:10.761Z,12.70
2018-05-02T09:37:36.971Z,12.70
2018-05-02T09:40:03.526Z,12.90
2018-05-02T09:42:29.959Z,12.80
2018-05-02T09:44:56.261Z,12.80
2018-05-02T09:47:22.585Z,12.80
2018-05-02T09:49:49.154Z,12.80
2018-05-02T09:52:15.493Z,12.80
2018-05-02T09:54:41.932Z,13.00
2018-05-02T09:57:08.941Z,13.20
2018-05-02T09:59:35.145Z,13.20
2018-05-02T10:02:01.385Z,13.20
2018-05-02T10:04:27.718Z,13.10
2018-05-02T10:06:54.092Z,13.30
2018-05-02T10:09:21.357Z,13.80
2018-05-02T10:11:48.488Z,14.00
2018-05-02T10:14:14.791Z,14.00
2018-05-02T10:16:41.163Z,14.10
2018-05-02T10:19:08.132Z,14.50
2018-05-02T10:21:35.366Z,14.50
2018-05-02T10:24:02.383Z,14.90
2018-05-02T10:26:28.744Z,14.80
2018-05-02T10:28:55.134Z,15.00
2018-05-02T10:31:21.558Z,15.20
2018-05-02T10:33:47.959Z,15.20
2018-05-02T10:36:14.402Z,14.90
2018-05-02T10:38:40.669Z,14.60
2018-05-02T10:41:07.048Z,14.40
2018-05-02T10:43:33.311Z,14.50
2018-05-02T10:45:59.641Z,14.80
2018-05-02T10:48:25.844Z,15.20
2018-05-02T10:50:52.357Z,15.40
2018-05-02T10:53:18.664Z,15.30
2018-05-02T10:55:45.669Z,15.20
2018-05-02T10:58:11.980Z,15.20
2018-05-02T11:00:38.331Z,15.20
2018-05-02T11:03:05.081Z,15.30
2018-05-02T11:05:31.300Z,15.40
2018-05-02T11:07:57.657Z,15.50
2018-05-02T11:10:24.809Z,15.60
2018-05-02T11:12:52.133Z,15.30
2018-05-02T11:15:18.768Z,15.30
2018-05-02T11:17:45.120Z,15.40
2018-05-02T11:20:12.451Z,15.30
2018-05-02T11:22:38.985Z,15.30
2018-05-02T11:25:05.226Z,15.40
2018-05-02T11:27:31.643Z,15.40
2018-05-02T11:29:58.006Z,15.20
2018-05-02T11:32:25.056Z,15.40
2018-05-02T11:34:52.224Z,15.40
2018-05-02T11:37:18.504Z,15.40
2018-05-02T11:39:44.936Z,15.30
2018-05-02T11:42:11.332Z,15.00
2018-05-02T11:44:37.635Z,14.90
2018-05-02T11:47:03.919Z,14.90
2018-05-02T11:49:30.369Z,15.00
2018-05-02T11:51:56.690Z,15.20
2018-05-02T11:54:23.119Z,15.30
2018-05-02T11:56:49.390Z,15.60
2018-05-02T11:59:16.552Z,15.50
2018-05-02T12:01:42.760Z,15.50
2018-05-02T12:04:09.728Z,15.20
2018-05-02T12:06:36.096Z,15.20
2018-05-02T12:09:02.597Z,15.20
2018-05-02T12:11:28.970Z,15.20
2018-05-02T12:13:55.269Z,15.20
2018-05-02T12:16:21.569Z,15.10
2018-05-02T12:18:47.830Z,15.10
2018-05-02T12:21:14.006Z,15.00
2018-05-02T12:23:40.996Z,15.40
2018-05-02T12:26:07.223Z,15.40
2018-05-02T12:28:33.781Z,15.40
2018-05-02T12:31:00.187Z,15.40
2018-05-02T12:33:26.371Z,15.30
2018-05-02T12:35:53.439Z,15.30
2018-05-02T12:38:19.728Z,15.30
2018-05-02T12:40:46.829Z,14.90
2018-05-02T12:43:13.196Z,14.90
2018-05-02T12:45:39.509Z,14.70
2018-05-02T12:48:05.829Z,14.70
2018-05-02T12:50:32.289Z,14.70
2018-05-02T12:52:58.722Z,14.80
2018-05-02T12:55:24.980Z,14.90
2018-05-02T12:57:51.961Z,15.10
2018-05-02T13:00:18.210Z,15.10
2018-05-02T13:02:44.625Z,15.20
2018-05-02T13:05:10.852Z,15.10
2018-05-02T13:07:37.084Z,14.90
2018-05-02T13:10:03.461Z,14.90
2018-05-02T13:12:30.434Z,15.00
2018-05-02T13:14:57.110Z,15.00
2018-05-02T13:17:23.405Z,15.00
2018-05-02T13:19:49.892Z,15.00
2018-05-02T13:22:16.090Z,14.80
2018-05-02T13:24:43.124Z,14.80
2018-05-02T13:27:09.545Z,14.90
2018-05-02T13:29:35.862Z,15.00
2018-05-02T13:32:02.240Z,15.10
2018-05-02T13:34:28.502Z,15.40
2018-05-02T13:36:55.622Z,15.50
2018-05-02T13:39:21.947Z,15.50
2018-05-02T13:41:48.326Z,15.50
2018-05-02T13:44:14.647Z,15.50
2018-05-02T13:46:41.673Z,15.30
2018-05-02T13:49:08.497Z,15.20
2018-05-02T13:51:36.467Z,15.20
2018-05-02T13:54:03.028Z,15.20
2018-05-02T13:56:30.382Z,15.20
2018-05-02T13:58:58.278Z,15.40
2018-05-02T14:01:24.663Z,15.40
2018-05-02T14:03:52.880Z,15.40
2018-05-02T14:06:19.183Z,15.40
2018-05-02T14:08:45.736Z,15.50
2018-05-02T14:11:11.970Z,15.60
2018-05-02T14:13:38.330Z,15.70
2018-05-02T14:16:04.557Z,15.90
2018-05-02T14:18:30.852Z,16.10
2018-05-02T14:20:57.150Z,16.00
2018-05-02T14:23:24.144Z,16.10
2018-05-02T14:25:50.510Z,16.10
2018-05-02T14:28:16.813Z,16.20
2018-05-02T14:30:43.168Z,16.10
2018-05-02T14:33:09.493Z,16.00
2018-05-02T14:35:35.927Z,15.90
2018-05-02T14:38:02.226Z,15.90
2018-05-02T14:40:29.201Z,15.80
2018-05-02T14:42:55.590Z,15.70
2018-05-02T14:45:21.971Z,15.90
2018-05-02T14:47:48.261Z,15.90
2018-05-02T14:50:14.635Z,15.90
2018-05-02T14:52:42.338Z,15.90
2018-05-02T14:55:08.692Z,15.90
2018-05-02T14:57:35.062Z,15.90
2018-05-02T15:00:02.303Z,16.10
2018-05-02T15:02:28.521Z,16.10
2018-05-02T15:04:54.889Z,16.10
2018-05-02T15:07:21.958Z,16.10
2018-05-02T15:09:48.230Z,16.10
2018-05-02T15:12:14.560Z,16.10
2018-05-02T15:14:40.846Z,16.00
2018-05-02T15:17:07.003Z,15.90
2018-05-02T15:19:33.353Z,15.80
2018-05-02T15:21:59.706Z,15.80
2018-05-02T15:24:26.719Z,15.60
2018-05-02T15:26:52.987Z,15.50
2018-05-02T15:29:19.995Z,15.60
2018-05-02T15:31:47.245Z,15.60
2018-05-02T15:34:13.501Z,15.50
2018-05-02T15:36:40.614Z,15.40
2018-05-02T15:39:07.108Z,15.40
2018-05-02T15:41:33.560Z,15.40
2018-05-02T15:44:00.588Z,15.30
2018-05-02T15:46:26.811Z,15.30
2018-05-02T15:48:53.238Z,15.40
2018-05-02T15:51:20.341Z,15.30
2018-05-02T15:53:46.754Z,15.20
2018-05-02T15:56:13.196Z,15.20
2018-05-02T15:58:39.374Z,15.20
2018-05-02T16:01:06.591Z,15.10
2018-05-02T16:03:32.840Z,15.10
2018-05-02T16:05:59.855Z,15.00
2018-05-02T16:08:26.135Z,15.00
2018-05-02T16:10:52.415Z,15.00
2018-05-02T16:13:18.683Z,15.00
2018-05-02T16:15:44.984Z,14.90
2018-05-02T16:18:11.236Z,14.90
2018-05-02T16:20:38.248Z,14.80
2018-05-02T16:23:04.488Z,14.70
2018-05-02T16:25:30.720Z,14.70
2018-05-02T16:27:57.811Z,14.60
2018-05-02T16:30:24.081Z,14.50
2018-05-02T16:32:50.504Z,14.50
2018-05-02T16:35:16.697Z,14.50
2018-05-02T16:37:43.176Z,14.40
2018-05-02T16:40:09.492Z,14.30
2018-05-02T16:42:35.872Z,14.30
2018-05-02T16:45:02.876Z,14.20
2018-05-02T16:47:29.106Z,14.20
2018-05-02T16:49:55.531Z,14.20
2018-05-02T16:52:21.740Z,14.10
2018-05-02T16:54:48.358Z,14.10
2018-05-02T16:57:14.752Z,14.00
2018-05-02T16:59:41.805Z,14.00
2018-05-02T17:02:08.738Z,13.90
2018-05-02T17:04:34.969Z,13.90
2018-05-02T17:07:01.991Z,13.90
2018-05-02T17:09:28.372Z,13.80
2018-05-02T17:11:54.691Z,13.90
2018-05-02T17:14:21.803Z,13.70
2018-05-02T17:16:48.155Z,13.70
2018-05-02T17:19:15.080Z,13.70
2018-05-02T17:21:41.399Z,13.70
2018-05-02T17:24:07.672Z,13.70
2018-05-02T17:26:35.212Z,13.60
2018-05-02T17:29:01.629Z,13.60
2018-05-02T17:31:27.800Z,13.50
2018-05-02T17:33:54.070Z,13.50
2018-05-02T17:36:20.407Z,13.50
2018-05-02T17:38:46.840Z,13.40
2018-05-02T17:41:13.161Z,13.40
2018-05-02T17:43:39.416Z,13.30
2018-05-02T17:46:05.633Z,13.30
2018-05-02T17:48:32.016Z,13.20
2018-05-02T17:50:58.307Z,13.20
2018-05-02T17:53:24.643Z,13.20
2018-05-02T17:55:51.700Z,13.00
2018-05-02T17:58:18.696Z,13.00
2018-05-02T18:00:45.061Z,12.90
2018-05-02T18:03:12.014Z,12.90
2018-05-02T18:05:39.058Z,12.90
2018-05-02T18:08:05.297Z,12.90
2018-05-02T18:10:32.330Z,12.80
2018-05-02T18:12:58.666Z,12.80
2018-05-02T18:15:25.591Z,12.70
2018-05-02T18:17:51.893Z,12.70
2018-05-02T18:20:18.196Z,12.60
2018-05-02T18:22:44.539Z,12.60
2018-05-02T18:25:10.830Z,12.60
2018-05-02T18:27:37.938Z,12.40
2018-05-02T18:30:05.232Z,12.40
2018-05-02T18:32:31.542Z,12.30
2018-05-02T18:34:57.837Z,12.20
2018-05-02T18:37:24.065Z,12.20
2018-05-02T18:39:50.281Z,12.10
2018-05-02T18:42:16.567Z,12.10
2018-05-02T18:44:43.537Z,12.00
2018-05-02T18:47:09.907Z,12.00
2018-05-02T18:49:36.236Z,12.00
2018-05-02T18:52:02.445Z,11.90
2018-05-02T18:54:28.716Z,11.80
2018-05-02T18:56:55.789Z,11.60
2018-05-02T18:59:22.164Z,11.60
2018-05-02T19:01:48.563Z,11.60
2018-05-02T19:04:14.886Z,11.50
2018-05-02T19:06:41.193Z,11.40
2018-05-02T19:09:08.320Z,11.30
2018-05-02T19:11:35.248Z,11.20
2018-05-02T19:14:01.545Z,11.20
2018-05-02T19:16:27.952Z,11.20
2018-05-02T19:19:01.163Z,11.20
2018-05-02T19:21:27.513Z,11.20
2018-05-02T19:23:53.899Z,11.10
2018-05-02T19:26:26.251Z,11.00
2018-05-02T19:28:52.606Z,11.00
2018-05-02T19:31:25.757Z,10.90
2018-05-02T19:33:52.025Z,10.80
2018-05-02T19:36:18.961Z,10.90
2018-05-02T19:38:45.206Z,10.80
2018-05-02T19:41:17.705Z,10.80
2018-05-02T19:43:50.058Z,10.80
2018-05-02T19:46:16.356Z,10.70
2018-05-02T19:48:44.129Z,10.60
2018-05-02T19:51:17.441Z,10.60
2018-05-02T19:53:44.032Z,10.60
2018-05-02T19:56:10.388Z,10.60
2018-05-02T19:58:37.288Z,10.60
2018-05-02T20:01:09.835Z,10.60
2018-05-02T20:03:36.297Z,10.60
2018-05-02T20:06:02.578Z,10.60
2018-05-02T20:08:35.012Z,10.50
2018-05-02T20:11:07.468Z,10.50
2018-05-02T20:13:40.338Z,10.50
2018-05-02T20:16:07.532Z,10.40
2018-05-02T20:18:34.959Z,10.30
2018-05-02T20:21:01.181Z,10.30
2018-05-02T20:23:27.639Z,10.30
2018-05-02T20:25:53.925Z,10.30
2018-05-02T20:28:20.142Z,10.30
2018-05-02T20:30:47.550Z,10.30
2018-05-02T20:33:13.790Z,10.30
2018-05-02T20:35:40.036Z,10.20
2018-05-02T20:38:06.947Z,10.20
2018-05-02T20:40:33.122Z,10.20
2018-05-02T20:42:59.438Z,10.20
2018-05-02T20:45:25.664Z,10.10
2018-05-02T20:47:52.047Z,10.10
2018-05-02T20:50:18.396Z,10.10
2018-05-02T20:52:44.790Z,10.10
2018-05-02T20:55:11.250Z,10.10
2018-05-02T20:57:37.517Z,10.10
2018-05-02T21:00:03.832Z,10.10
2018-05-02T21:02:30.868Z,10.10
2018-05-02T21:04:57.181Z,10.10
2018-05-02T21:07:25.037Z,10.00
2018-05-02T21:09:51.334Z,10.00
2018-05-02T21:12:17.569Z,10.00
2018-05-02T21:14:44.147Z,10.10
2018-05-02T21:17:10.423Z,10.10
2018-05-02T21:19:36.659Z,10.10
2018-05-02T21:22:03.102Z,10.10
2018-05-02T21:24:29.420Z,10.00
2018-05-02T21:26:55.839Z,10.00
2018-05-02T21:29:23.636Z,9.90
2018-05-02T21:31:49.885Z,9.90
2018-05-02T21:34:16.123Z,9.90
2018-05-02T21:36:43.386Z,9.90
2018-05-02T21:39:09.796Z,9.90
2018-05-02T21:41:36.146Z,9.90
2018-05-02T21:44:03.358Z,9.90
2018-05-02T21:46:29.623Z,9.90
2018-05-02T21:48:56.772Z,9.80
2018-05-02T21:51:23.833Z,9.80
2018-05-02T21:53:50.066Z,9.80
2018-05-02T21:56:16.290Z,9.70
2018-05-02T21:58:42.809Z,9.60
2018-05-02T22:01:09.203Z,9.60
2018-05-02T22:03:36.997Z,9.50
2018-05-02T22:06:03.928Z,9.50
2018-05-02T22:08:30.183Z,9.50
2018-05-02T22:10:56.403Z,9.40
2018-05-02T22:13:23.920Z,9.30
2018-05-02T22:15:50.191Z,9.30
2018-05-02T22:18:17.445Z,9.20
2018-05-02T22:20:43.843Z,9.20
2018-05-02T22:23:10.828Z,9.00
2018-05-02T22:25:37.132Z,9.00
2018-05-02T22:28:03.445Z,8.90
2018-05-02T22:30:30.398Z,8.80
2018-05-02T22:32:56.663Z,8.80
2018-05-02T22:35:22.981Z,8.70
2018-05-02T22:37:50.087Z,8.60
2018-05-02T22:40:16.329Z,8.50
2018-05-02T22:42:42.586Z,8.40
2018-05-02T22:45:08.917Z,8.30
2018-05-02T22:47:35.927Z,8.20
2018-05-02T22:50:02.994Z,8.20
2018-05-02T22:52:29.287Z,8.10
2018-05-02T22:54:55.538Z,8.10
2018-05-02T22:57:22.598Z,7.80
2018-05-02T22:59:49.678Z,7.70
2018-05-02T23:02:16.002Z,7.70
2018-05-02T23:04:42.264Z,7.60
2018-05-02T23:07:08.573Z,7.60
2018-05-02T23:09:34.832Z,7.50
2018-05-02T23:12:01.043Z,7.50
2018-05-02T23:14:27.337Z,7.40
2018-05-02T23:16:53.528Z,7.40
2018-05-02T23:19:19.786Z,7.40
2018-05-02T23:21:46.003Z,7.30
2018-05-02T23:24:12.913Z,7.20
2018-05-02T23:26:39.345Z,7.20
2018-05-02T23:29:05.701Z,7.20
2018-05-02T23:31:32.653Z,7.20
2018-05-02T23:33:59.604Z,7.20
2018-05-02T23:36:25.783Z,7.10
2018-05-02T23:38:52.133Z,7.20
2018-05-02T23:41:18.426Z,7.20
2018-05-02T23:43:44.772Z,7.30
2018-05-02T23:46:10.963Z,7.30
2018-05-02T23:48:37.201Z,7.30
2018-05-02T23:51:03.430Z,7.30
2018-05-02T23:53:29.682Z,7.30
2018-05-02T23:55:55.903Z,7.40
2018-05-02T23:58:22.028Z,7.40
